sensor_id;sensor_type;location;lat;lon;timestamp;P1;durP1;ratioP1;P2;durP2;ratioP2
32812;SDS011;19162;48.254;11.454;2023-05-10T00:02:27;1.27;;;1.17;;
32812;SDS011;19162;48.254;11.454;2023-05-10T00:05:28;1.42;;;1.33;;
32812;SDS011;19162;48.254;11.454;2023-05-10T00:08:28;0.90;;;0.90;;
32812;SDS011;19162;48.254;11.454;2023-05-10T00:11:28;2.07;;;0.80;;
32812;SDS011;19162;48.254;11.454;2023-05-10T00:14:28;3.17;;;1.10;;
32812;SDS011;19162;48.254;11.454;2023-05-10T00:17:28;0.87;;;0.83;;
32812;SDS011;19162;48.254;11.454;2023-05-10T00:20:29;1.77;;;0.93;;
32812;SDS011;19162;48.254;11.454;2023-05-10T00:23:29;1.05;;;0.93;;
32812;SDS011;19162;48.254;11.454;2023-05-10T00:26:29;1.02;;;0.93;;
32812;SDS011;19162;48.254;11.454;2023-05-10T00:29:30;1.20;;;1.20;;
32812;SDS011;19162;48.254;11.454;2023-05-10T00:32:30;2.38;;;0.98;;
32812;SDS011;19162;48.254;11.454;2023-05-10T00:35:30;1.20;;;1.10;;
32812;SDS011;19162;48.254;11.454;2023-05-10T00:38:30;1.40;;;0.90;;
32812;SDS011;19162;48.254;11.454;2023-05-10T00:41:31;4.57;;;1.08;;
32812;SDS011;19162;48.254;11.454;2023-05-10T00:44:32;1.48;;;1.00;;
32812;SDS011;19162;48.254;11.454;2023-05-10T00:47:32;3.47;;;1.03;;
32812;SDS011;19162;48.254;11.454;2023-05-10T00:50:33;1.30;;;0.97;;
32812;SDS011;19162;48.254;11.454;2023-05-10T00:53:33;0.70;;;0.70;;
32812;SDS011;19162;48.254;11.454;2023-05-10T00:56:34;0.75;;;0.70;;
32812;SDS011;19162;48.254;11.454;2023-05-10T00:59:36;1.73;;;0.77;;
32812;SDS011;19162;48.254;11.454;2023-05-10T01:02:36;0.88;;;0.88;;
32812;SDS011;19162;48.254;11.454;2023-05-10T01:05:37;0.60;;;0.60;;
32812;SDS011;19162;48.254;11.454;2023-05-10T01:08:37;1.48;;;0.70;;
32812;SDS011;19162;48.254;11.454;2023-05-10T01:11:37;0.97;;;0.70;;
32812;SDS011;19162;48.254;11.454;2023-05-10T01:14:38;1.08;;;0.82;;
32812;SDS011;19162;48.254;11.454;2023-05-10T01:17:39;1.20;;;0.60;;
32812;SDS011;19162;48.254;11.454;2023-05-10T01:20:40;0.70;;;0.60;;
32812;SDS011;19162;48.254;11.454;2023-05-10T01:36:48;1.88;;;0.52;;
32812;SDS011;19162;48.254;11.454;2023-05-10T01:40:03;0.60;;;0.50;;
32812;SDS011;19162;48.254;11.454;2023-05-10T01:43:08;2.65;;;0.68;;
32812;SDS011;19162;48.254;11.454;2023-05-10T01:46:13;1.13;;;0.60;;
32812;SDS011;19162;48.254;11.454;2023-05-10T01:49:25;0.55;;;0.47;;
32812;SDS011;19162;48.254;11.454;2023-05-10T01:52:26;0.90;;;0.63;;
32812;SDS011;19162;48.254;11.454;2023-05-10T01:55:30;2.10;;;0.68;;
32812;SDS011;19162;48.254;11.454;2023-05-10T01:58:32;2.10;;;0.68;;
32812;SDS011;19162;48.254;11.454;2023-05-10T02:01:33;0.52;;;0.50;;
32812;SDS011;19162;48.254;11.454;2023-05-10T02:07:37;0.30;;;0.30;;
32812;SDS011;19162;48.254;11.454;2023-05-10T02:10:37;0.97;;;0.67;;
32812;SDS011;19162;48.254;11.454;2023-05-10T02:13:39;0.40;;;0.40;;
32812;SDS011;19162;48.254;11.454;2023-05-10T02:16:39;2.22;;;0.70;;
32812;SDS011;19162;48.254;11.454;2023-05-10T02:19:40;0.40;;;0.40;;
32812;SDS011;19162;48.254;11.454;2023-05-10T02:22:42;0.35;;;0.35;;
32812;SDS011;19162;48.254;11.454;2023-05-10T02:25:43;0.43;;;0.43;;
32812;SDS011;19162;48.254;11.454;2023-05-10T02:28:43;0.45;;;0.40;;
32812;SDS011;19162;48.254;11.454;2023-05-10T02:31:45;0.30;;;0.30;;
32812;SDS011;19162;48.254;11.454;2023-05-10T02:34:45;0.40;;;0.40;;
32812;SDS011;19162;48.254;11.454;2023-05-10T02:37:46;0.40;;;0.40;;
32812;SDS011;19162;48.254;11.454;2023-05-10T02:40:47;0.82;;;0.40;;
32812;SDS011;19162;48.254;11.454;2023-05-10T02:43:51;0.50;;;0.50;;
32812;SDS011;19162;48.254;11.454;2023-05-10T02:46:53;0.32;;;0.32;;
32812;SDS011;19162;48.254;11.454;2023-05-10T02:49:55;0.50;;;0.50;;
32812;SDS011;19162;48.254;11.454;2023-05-10T02:52:57;0.77;;;0.40;;
32812;SDS011;19162;48.254;11.454;2023-05-10T02:56:00;0.45;;;0.45;;
32812;SDS011;19162;48.254;11.454;2023-05-10T02:59:01;0.50;;;0.40;;
32812;SDS011;19162;48.254;11.454;2023-05-10T03:02:01;0.35;;;0.35;;
32812;SDS011;19162;48.254;11.454;2023-05-10T03:05:02;1.13;;;0.50;;
32812;SDS011;19162;48.254;11.454;2023-05-10T03:08:03;0.40;;;0.30;;
32812;SDS011;19162;48.254;11.454;2023-05-10T03:11:25;0.20;;;0.20;;
32812;SDS011;19162;48.254;11.454;2023-05-10T03:14:34;0.85;;;0.60;;
32812;SDS011;19162;48.254;11.454;2023-05-10T03:26:56;2.92;;;0.35;;
32812;SDS011;19162;48.254;11.454;2023-05-10T03:29:58;1.63;;;0.52;;
32812;SDS011;19162;48.254;11.454;2023-05-10T03:33:04;0.52;;;0.50;;
32812;SDS011;19162;48.254;11.454;2023-05-10T03:36:04;0.52;;;0.52;;
32812;SDS011;19162;48.254;11.454;2023-05-10T03:39:04;1.03;;;0.60;;
32812;SDS011;19162;48.254;11.454;2023-05-10T03:42:04;0.70;;;0.40;;
32812;SDS011;19162;48.254;11.454;2023-05-10T03:45:05;0.63;;;0.50;;
32812;SDS011;19162;48.254;11.454;2023-05-10T03:48:05;0.40;;;0.40;;
32812;SDS011;19162;48.254;11.454;2023-05-10T03:51:05;0.87;;;0.70;;
32812;SDS011;19162;48.254;11.454;2023-05-10T03:54:06;0.55;;;0.55;;
32812;SDS011;19162;48.254;11.454;2023-05-10T03:57:06;0.40;;;0.40;;
32812;SDS011;19162;48.254;11.454;2023-05-10T04:00:06;2.77;;;0.70;;
32812;SDS011;19162;48.254;11.454;2023-05-10T04:03:07;0.38;;;0.38;;
32812;SDS011;19162;48.254;11.454;2023-05-10T04:06:07;0.50;;;0.50;;
32812;SDS011;19162;48.254;11.454;2023-05-10T04:09:09;0.85;;;0.35;;
32812;SDS011;19162;48.254;11.454;2023-05-10T04:12:09;0.60;;;0.40;;
32812;SDS011;19162;48.254;11.454;2023-05-10T04:15:09;2.05;;;0.73;;
32812;SDS011;19162;48.254;11.454;2023-05-10T04:18:10;0.45;;;0.45;;
32812;SDS011;19162;48.254;11.454;2023-05-10T04:21:13;0.43;;;0.43;;
32812;SDS011;19162;48.254;11.454;2023-05-10T04:24:13;2.05;;;0.50;;
32812;SDS011;19162;48.254;11.454;2023-05-10T04:27:13;0.40;;;0.40;;
32812;SDS011;19162;48.254;11.454;2023-05-10T04:30:14;1.50;;;0.57;;
32812;SDS011;19162;48.254;11.454;2023-05-10T04:33:14;0.95;;;0.60;;
32812;SDS011;19162;48.254;11.454;2023-05-10T04:36:15;0.60;;;0.60;;
32812;SDS011;19162;48.254;11.454;2023-05-10T04:39:15;1.58;;;0.60;;
32812;SDS011;19162;48.254;11.454;2023-05-10T04:42:15;0.45;;;0.45;;
32812;SDS011;19162;48.254;11.454;2023-05-10T04:45:15;0.87;;;0.50;;
32812;SDS011;19162;48.254;11.454;2023-05-10T04:48:17;0.87;;;0.60;;
32812;SDS011;19162;48.254;11.454;2023-05-10T04:51:17;0.75;;;0.70;;
32812;SDS011;19162;48.254;11.454;2023-05-10T04:54:17;0.70;;;0.60;;
32812;SDS011;19162;48.254;11.454;2023-05-10T04:57:17;2.28;;;0.30;;
32812;SDS011;19162;48.254;11.454;2023-05-10T05:00:17;1.15;;;0.32;;
32812;SDS011;19162;48.254;11.454;2023-05-10T05:03:18;0.25;;;0.25;;
32812;SDS011;19162;48.254;11.454;2023-05-10T05:06:18;0.70;;;0.22;;
32812;SDS011;19162;48.254;11.454;2023-05-10T05:09:18;0.77;;;0.30;;
32812;SDS011;19162;48.254;11.454;2023-05-10T05:12:18;0.23;;;0.23;;
32812;SDS011;19162;48.254;11.454;2023-05-10T05:15:18;0.20;;;0.20;;
32812;SDS011;19162;48.254;11.454;2023-05-10T05:18:19;0.20;;;0.20;;
32812;SDS011;19162;48.254;11.454;2023-05-10T05:21:19;0.22;;;0.22;;
32812;SDS011;19162;48.254;11.454;2023-05-10T05:24:19;1.13;;;0.40;;
32812;SDS011;19162;48.254;11.454;2023-05-10T05:27:20;0.73;;;0.47;;
32812;SDS011;19162;48.254;11.454;2023-05-10T05:30:24;0.55;;;0.30;;
32812;SDS011;19162;48.254;11.454;2023-05-10T05:33:24;1.83;;;0.35;;
32812;SDS011;19162;48.254;11.454;2023-05-10T05:36:24;0.30;;;0.30;;
32812;SDS011;19162;48.254;11.454;2023-05-10T05:39:24;1.25;;;0.50;;
32812;SDS011;19162;48.254;11.454;2023-05-10T05:42:24;0.63;;;0.37;;
32812;SDS011;19162;48.254;11.454;2023-05-10T05:45:25;2.22;;;0.40;;
32812;SDS011;19162;48.254;11.454;2023-05-10T05:48:25;0.60;;;0.30;;
32812;SDS011;19162;48.254;11.454;2023-05-10T05:51:26;1.20;;;0.77;;
32812;SDS011;19162;48.254;11.454;2023-05-10T05:54:26;0.30;;;0.30;;
32812;SDS011;19162;48.254;11.454;2023-05-10T05:57:27;0.65;;;0.57;;
32812;SDS011;19162;48.254;11.454;2023-05-10T06:00:27;0.40;;;0.40;;
32812;SDS011;19162;48.254;11.454;2023-05-10T06:03:27;0.50;;;0.40;;
32812;SDS011;19162;48.254;11.454;2023-05-10T06:06:27;0.90;;;0.40;;
32812;SDS011;19162;48.254;11.454;2023-05-10T06:09:28;1.40;;;0.70;;
32812;SDS011;19162;48.254;11.454;2023-05-10T06:12:28;0.90;;;0.63;;
32812;SDS011;19162;48.254;11.454;2023-05-10T06:15:28;1.93;;;1.00;;
32812;SDS011;19162;48.254;11.454;2023-05-10T06:18:28;3.20;;;0.83;;
32812;SDS011;19162;48.254;11.454;2023-05-10T06:21:28;1.17;;;0.70;;
32812;SDS011;19162;48.254;11.454;2023-05-10T06:24:29;0.90;;;0.75;;
32812;SDS011;19162;48.254;11.454;2023-05-10T06:27:30;1.90;;;0.70;;
32812;SDS011;19162;48.254;11.454;2023-05-10T06:30:30;0.90;;;0.60;;
32812;SDS011;19162;48.254;11.454;2023-05-10T06:33:30;1.90;;;0.70;;
32812;SDS011;19162;48.254;11.454;2023-05-10T06:36:31;3.28;;;0.70;;
32812;SDS011;19162;48.254;11.454;2023-05-10T06:39:31;0.85;;;0.75;;
32812;SDS011;19162;48.254;11.454;2023-05-10T06:42:31;1.45;;;0.80;;
32812;SDS011;19162;48.254;11.454;2023-05-10T06:45:32;0.60;;;0.60;;
32812;SDS011;19162;48.254;11.454;2023-05-10T06:48:32;1.17;;;0.73;;
32812;SDS011;19162;48.254;11.454;2023-05-10T06:51:32;2.22;;;0.75;;
32812;SDS011;19162;48.254;11.454;2023-05-10T06:54:32;1.30;;;0.93;;
32812;SDS011;19162;48.254;11.454;2023-05-10T06:57:33;0.70;;;0.70;;
32812;SDS011;19162;48.254;11.454;2023-05-10T07:00:33;2.23;;;0.60;;
32812;SDS011;19162;48.254;11.454;2023-05-10T07:03:33;2.63;;;0.87;;
32812;SDS011;19162;48.254;11.454;2023-05-10T07:06:33;0.85;;;0.70;;
32812;SDS011;19162;48.254;11.454;2023-05-10T07:09:34;0.85;;;0.77;;
32812;SDS011;19162;48.254;11.454;2023-05-10T07:12:34;1.00;;;0.90;;
32812;SDS011;19162;48.254;11.454;2023-05-10T07:15:34;0.88;;;0.65;;
32812;SDS011;19162;48.254;11.454;2023-05-10T07:18:34;0.93;;;0.70;;
32812;SDS011;19162;48.254;11.454;2023-05-10T07:21:35;0.87;;;0.80;;
32812;SDS011;19162;48.254;11.454;2023-05-10T07:24:36;1.27;;;1.00;;
32812;SDS011;19162;48.254;11.454;2023-05-10T07:27:36;0.77;;;0.77;;
32812;SDS011;19162;48.254;11.454;2023-05-10T07:30:36;0.87;;;0.73;;
32812;SDS011;19162;48.254;11.454;2023-05-10T07:33:36;1.20;;;1.10;;
32812;SDS011;19162;48.254;11.454;2023-05-10T07:36:36;1.65;;;0.88;;
32812;SDS011;19162;48.254;11.454;2023-05-10T07:39:37;0.70;;;0.70;;
32812;SDS011;19162;48.254;11.454;2023-05-10T07:42:37;2.15;;;0.77;;
32812;SDS011;19162;48.254;11.454;2023-05-10T07:45:38;1.20;;;0.77;;
32812;SDS011;19162;48.254;11.454;2023-05-10T07:48:38;1.20;;;1.10;;
32812;SDS011;19162;48.254;11.454;2023-05-10T07:51:38;0.50;;;0.50;;
32812;SDS011;19162;48.254;11.454;2023-05-10T07:54:38;0.50;;;0.50;;
32812;SDS011;19162;48.254;11.454;2023-05-10T07:57:39;1.70;;;0.70;;
32812;SDS011;19162;48.254;11.454;2023-05-10T08:00:39;2.35;;;0.90;;
32812;SDS011;19162;48.254;11.454;2023-05-10T08:03:41;1.33;;;0.70;;
32812;SDS011;19162;48.254;11.454;2023-05-10T08:06:41;2.00;;;0.90;;
32812;SDS011;19162;48.254;11.454;2023-05-10T08:09:41;0.70;;;0.67;;
32812;SDS011;19162;48.254;11.454;2023-05-10T08:12:41;1.00;;;0.75;;
32812;SDS011;19162;48.254;11.454;2023-05-10T08:15:41;1.20;;;0.80;;
32812;SDS011;19162;48.254;11.454;2023-05-10T08:18:42;1.33;;;0.70;;
32812;SDS011;19162;48.254;11.454;2023-05-10T08:21:43;0.98;;;0.85;;
32812;SDS011;19162;48.254;11.454;2023-05-10T08:24:43;4.00;;;0.80;;
32812;SDS011;19162;48.254;11.454;2023-05-10T08:27:43;1.00;;;1.00;;
32812;SDS011;19162;48.254;11.454;2023-05-10T08:30:43;2.00;;;0.98;;
32812;SDS011;19162;48.254;11.454;2023-05-10T08:33:43;2.57;;;0.60;;
32812;SDS011;19162;48.254;11.454;2023-05-10T08:36:44;1.80;;;0.70;;
32812;SDS011;19162;48.254;11.454;2023-05-10T08:39:44;0.95;;;0.50;;
32812;SDS011;19162;48.254;11.454;2023-05-10T08:42:50;1.63;;;1.05;;
32812;SDS011;19162;48.254;11.454;2023-05-10T08:45:51;2.97;;;0.82;;
32812;SDS011;19162;48.254;11.454;2023-05-10T08:48:52;2.28;;;1.15;;
32812;SDS011;19162;48.254;11.454;2023-05-10T08:51:54;1.50;;;0.70;;
32812;SDS011;19162;48.254;11.454;2023-05-10T08:54:55;0.60;;;0.60;;
32812;SDS011;19162;48.254;11.454;2023-05-10T08:57:55;1.33;;;0.60;;
32812;SDS011;19162;48.254;11.454;2023-05-10T09:00:55;0.88;;;0.68;;
32812;SDS011;19162;48.254;11.454;2023-05-10T09:03:55;1.17;;;0.90;;
32812;SDS011;19162;48.254;11.454;2023-05-10T09:06:56;1.53;;;0.70;;
32812;SDS011;19162;48.254;11.454;2023-05-10T09:09:56;2.83;;;0.82;;
32812;SDS011;19162;48.254;11.454;2023-05-10T09:12:57;0.80;;;0.75;;
32812;SDS011;19162;48.254;11.454;2023-05-10T09:15:57;1.25;;;0.75;;
32812;SDS011;19162;48.254;11.454;2023-05-10T09:18:58;1.75;;;0.90;;
32812;SDS011;19162;48.254;11.454;2023-05-10T09:21:58;1.08;;;0.95;;
32812;SDS011;19162;48.254;11.454;2023-05-10T09:25:06;1.58;;;0.77;;
32812;SDS011;19162;48.254;11.454;2023-05-10T09:28:07;2.13;;;0.60;;
32812;SDS011;19162;48.254;11.454;2023-05-10T09:31:08;0.60;;;0.60;;
32812;SDS011;19162;48.254;11.454;2023-05-10T09:34:08;1.38;;;0.73;;
32812;SDS011;19162;48.254;11.454;2023-05-10T09:37:09;1.42;;;0.50;;
32812;SDS011;19162;48.254;11.454;2023-05-10T09:40:16;0.90;;;0.50;;
32812;SDS011;19162;48.254;11.454;2023-05-10T09:43:16;1.52;;;0.75;;
32812;SDS011;19162;48.254;11.454;2023-05-10T09:46:16;2.70;;;0.90;;
32812;SDS011;19162;48.254;11.454;2023-05-10T09:49:17;3.73;;;0.83;;
32812;SDS011;19162;48.254;11.454;2023-05-10T09:52:17;2.53;;;0.68;;
32812;SDS011;19162;48.254;11.454;2023-05-10T09:55:18;1.43;;;0.67;;
32812;SDS011;19162;48.254;11.454;2023-05-10T09:58:18;0.63;;;0.63;;
32812;SDS011;19162;48.254;11.454;2023-05-10T10:01:18;0.40;;;0.40;;
32812;SDS011;19162;48.254;11.454;2023-05-10T10:04:19;4.03;;;0.55;;
32812;SDS011;19162;48.254;11.454;2023-05-10T10:07:22;1.70;;;0.70;;
32812;SDS011;19162;48.254;11.454;2023-05-10T10:13:22;1.42;;;0.80;;
32812;SDS011;19162;48.254;11.454;2023-05-10T10:16:23;0.43;;;0.40;;
32812;SDS011;19162;48.254;11.454;2023-05-10T10:19:23;0.50;;;0.50;;
32812;SDS011;19162;48.254;11.454;2023-05-10T10:22:23;1.13;;;0.80;;
32812;SDS011;19162;48.254;11.454;2023-05-10T10:25:24;0.73;;;0.70;;
32812;SDS011;19162;48.254;11.454;2023-05-10T10:28:34;0.52;;;0.50;;
32812;SDS011;19162;48.254;11.454;2023-05-10T10:31:41;3.25;;;0.60;;
32812;SDS011;19162;48.254;11.454;2023-05-10T10:34:41;0.93;;;0.73;;
32812;SDS011;19162;48.254;11.454;2023-05-10T10:37:45;1.15;;;0.57;;
32812;SDS011;19162;48.254;11.454;2023-05-10T10:40:46;1.60;;;0.82;;
32812;SDS011;19162;48.254;11.454;2023-05-10T10:43:47;2.45;;;0.80;;
32812;SDS011;19162;48.254;11.454;2023-05-10T10:50:08;0.70;;;0.65;;
32812;SDS011;19162;48.254;11.454;2023-05-10T10:53:12;1.10;;;1.00;;
32812;SDS011;19162;48.254;11.454;2023-05-10T10:56:12;2.00;;;0.77;;
32812;SDS011;19162;48.254;11.454;2023-05-10T10:59:23;2.33;;;1.00;;
32812;SDS011;19162;48.254;11.454;2023-05-10T11:02:33;1.10;;;1.00;;
32812;SDS011;19162;48.254;11.454;2023-05-10T11:05:35;1.00;;;0.90;;
32812;SDS011;19162;48.254;11.454;2023-05-10T11:08:44;1.20;;;0.93;;
32812;SDS011;19162;48.254;11.454;2023-05-10T11:11:51;2.15;;;1.40;;
32812;SDS011;19162;48.254;11.454;2023-05-10T11:14:52;2.80;;;1.58;;
32812;SDS011;19162;48.254;11.454;2023-05-10T11:17:52;3.03;;;2.73;;
32812;SDS011;19162;48.254;11.454;2023-05-10T11:21:01;1.97;;;1.83;;
32812;SDS011;19162;48.254;11.454;2023-05-10T11:24:13;3.15;;;1.25;;
32812;SDS011;19162;48.254;11.454;2023-05-10T11:27:13;2.20;;;1.25;;
32812;SDS011;19162;48.254;11.454;2023-05-10T11:30:14;1.37;;;1.27;;
32812;SDS011;19162;48.254;11.454;2023-05-10T11:33:15;1.70;;;1.45;;
32812;SDS011;19162;48.254;11.454;2023-05-10T11:36:37;3.33;;;1.75;;
32812;SDS011;19162;48.254;11.454;2023-05-10T11:39:37;2.90;;;1.80;;
32812;SDS011;19162;48.254;11.454;2023-05-10T11:42:37;2.08;;;1.20;;
32812;SDS011;19162;48.254;11.454;2023-05-10T11:45:38;1.90;;;1.75;;
32812;SDS011;19162;48.254;11.454;2023-05-10T11:48:40;4.05;;;1.40;;
32812;SDS011;19162;48.254;11.454;2023-05-10T11:51:40;2.13;;;1.23;;
32812;SDS011;19162;48.254;11.454;2023-05-10T11:54:55;2.33;;;1.00;;
32812;SDS011;19162;48.254;11.454;2023-05-10T11:57:59;2.33;;;0.90;;
32812;SDS011;19162;48.254;11.454;2023-05-10T12:00:59;1.25;;;1.10;;
32812;SDS011;19162;48.254;11.454;2023-05-10T12:04:00;1.13;;;0.80;;
32812;SDS011;19162;48.254;11.454;2023-05-10T12:07:00;1.25;;;1.15;;
32812;SDS011;19162;48.254;11.454;2023-05-10T12:10:11;1.80;;;1.13;;
32812;SDS011;19162;48.254;11.454;2023-05-10T12:13:14;3.53;;;1.20;;
32812;SDS011;19162;48.254;11.454;2023-05-10T12:16:15;1.27;;;0.80;;
32812;SDS011;19162;48.254;11.454;2023-05-10T12:19:19;0.57;;;0.40;;
32812;SDS011;19162;48.254;11.454;2023-05-10T12:22:22;0.70;;;0.63;;
32812;SDS011;19162;48.254;11.454;2023-05-10T12:25:23;0.70;;;0.52;;
32812;SDS011;19162;48.254;11.454;2023-05-10T12:28:23;1.23;;;0.98;;
32812;SDS011;19162;48.254;11.454;2023-05-10T12:31:23;0.73;;;0.40;;
32812;SDS011;19162;48.254;11.454;2023-05-10T12:34:30;1.20;;;0.80;;
32812;SDS011;19162;48.254;11.454;2023-05-10T12:37:30;2.88;;;0.98;;
32812;SDS011;19162;48.254;11.454;2023-05-10T12:40:30;1.17;;;1.08;;
32812;SDS011;19162;48.254;11.454;2023-05-10T12:43:31;1.77;;;1.50;;
32812;SDS011;19162;48.254;11.454;2023-05-10T12:46:31;1.88;;;1.25;;
32812;SDS011;19162;48.254;11.454;2023-05-10T12:49:32;1.65;;;1.25;;
32812;SDS011;19162;48.254;11.454;2023-05-10T12:52:32;1.53;;;1.00;;
32812;SDS011;19162;48.254;11.454;2023-05-10T12:55:32;1.13;;;0.90;;
32812;SDS011;19162;48.254;11.454;2023-05-10T12:58:33;1.05;;;0.93;;
32812;SDS011;19162;48.254;11.454;2023-05-10T13:01:34;1.45;;;0.93;;
32812;SDS011;19162;48.254;11.454;2023-05-10T13:04:34;1.10;;;0.90;;
32812;SDS011;19162;48.254;11.454;2023-05-10T13:07:34;0.87;;;0.80;;
32812;SDS011;19162;48.254;11.454;2023-05-10T13:10:34;1.10;;;0.67;;
32812;SDS011;19162;48.254;11.454;2023-05-10T13:13:35;1.92;;;1.20;;
32812;SDS011;19162;48.254;11.454;2023-05-10T13:16:35;1.00;;;0.90;;
32812;SDS011;19162;48.254;11.454;2023-05-10T13:19:35;1.30;;;1.00;;
32812;SDS011;19162;48.254;11.454;2023-05-10T13:22:35;1.38;;;1.27;;
32812;SDS011;19162;48.254;11.454;2023-05-10T13:25:36;1.08;;;0.95;;
32812;SDS011;19162;48.254;11.454;2023-05-10T13:28:36;0.98;;;0.80;;
32812;SDS011;19162;48.254;11.454;2023-05-10T13:31:38;0.80;;;0.80;;
32812;SDS011;19162;48.254;11.454;2023-05-10T13:34:38;4.07;;;0.98;;
32812;SDS011;19162;48.254;11.454;2023-05-10T13:37:38;3.55;;;1.40;;
32812;SDS011;19162;48.254;11.454;2023-05-10T13:40:39;2.03;;;0.90;;
32812;SDS011;19162;48.254;11.454;2023-05-10T13:43:39;1.40;;;1.23;;
32812;SDS011;19162;48.254;11.454;2023-05-10T13:46:40;2.03;;;1.20;;
32812;SDS011;19162;48.254;11.454;2023-05-10T13:49:40;1.15;;;1.05;;
32812;SDS011;19162;48.254;11.454;2023-05-10T13:52:40;1.80;;;1.20;;
32812;SDS011;19162;48.254;11.454;2023-05-10T13:55:41;3.17;;;1.85;;
32812;SDS011;19162;48.254;11.454;2023-05-10T13:58:41;1.50;;;1.40;;
32812;SDS011;19162;48.254;11.454;2023-05-10T14:01:41;2.43;;;1.00;;
32812;SDS011;19162;48.254;11.454;2023-05-10T14:04:42;1.30;;;1.17;;
32812;SDS011;19162;48.254;11.454;2023-05-10T14:07:43;1.45;;;1.30;;
32812;SDS011;19162;48.254;11.454;2023-05-10T14:10:43;1.50;;;1.40;;
32812;SDS011;19162;48.254;11.454;2023-05-10T14:13:43;2.97;;;1.73;;
32812;SDS011;19162;48.254;11.454;2023-05-10T14:16:44;1.80;;;1.47;;
32812;SDS011;19162;48.254;11.454;2023-05-10T14:19:44;1.23;;;1.13;;
32812;SDS011;19162;48.254;11.454;2023-05-10T14:22:44;1.85;;;1.23;;
32812;SDS011;19162;48.254;11.454;2023-05-10T14:25:44;2.50;;;1.20;;
32812;SDS011;19162;48.254;11.454;2023-05-10T14:28:44;1.20;;;1.10;;
32812;SDS011;19162;48.254;11.454;2023-05-10T14:31:45;1.92;;;0.73;;
32812;SDS011;19162;48.254;11.454;2023-05-10T14:34:45;1.67;;;0.73;;
32812;SDS011;19162;48.254;11.454;2023-05-10T14:37:45;1.23;;;1.13;;
32812;SDS011;19162;48.254;11.454;2023-05-10T14:40:45;1.60;;;1.20;;
32812;SDS011;19162;48.254;11.454;2023-05-10T14:43:46;3.53;;;1.10;;
32812;SDS011;19162;48.254;11.454;2023-05-10T14:46:46;1.17;;;0.80;;
32812;SDS011;19162;48.254;11.454;2023-05-10T14:49:47;2.60;;;1.23;;
32812;SDS011;19162;48.254;11.454;2023-05-10T14:52:47;2.00;;;0.93;;
32812;SDS011;19162;48.254;11.454;2023-05-10T14:55:47;1.23;;;0.88;;
32812;SDS011;19162;48.254;11.454;2023-05-10T14:58:49;3.22;;;1.00;;
32812;SDS011;19162;48.254;11.454;2023-05-10T15:01:49;2.00;;;0.80;;
32812;SDS011;19162;48.254;11.454;2023-05-10T15:04:50;1.88;;;1.00;;
32812;SDS011;19162;48.254;11.454;2023-05-10T15:07:51;1.80;;;0.90;;
32812;SDS011;19162;48.254;11.454;2023-05-10T15:10:51;1.15;;;0.90;;
32812;SDS011;19162;48.254;11.454;2023-05-10T15:13:51;1.52;;;1.20;;
32812;SDS011;19162;48.254;11.454;2023-05-10T15:16:52;1.50;;;1.10;;
32812;SDS011;19162;48.254;11.454;2023-05-10T15:19:52;1.27;;;1.08;;
32812;SDS011;19162;48.254;11.454;2023-05-10T15:22:52;1.38;;;1.10;;
32812;SDS011;19162;48.254;11.454;2023-05-10T15:25:52;0.93;;;0.70;;
32812;SDS011;19162;48.254;11.454;2023-05-10T15:28:55;2.95;;;2.47;;
32812;SDS011;19162;48.254;11.454;2023-05-10T15:31:55;1.67;;;1.40;;
32812;SDS011;19162;48.254;11.454;2023-05-10T15:34:55;0.90;;;0.70;;
32812;SDS011;19162;48.254;11.454;2023-05-10T15:37:56;1.35;;;1.20;;
32812;SDS011;19162;48.254;11.454;2023-05-10T15:40:56;1.00;;;1.00;;
32812;SDS011;19162;48.254;11.454;2023-05-10T15:43:57;0.80;;;0.77;;
32812;SDS011;19162;48.254;11.454;2023-05-10T15:46:59;0.70;;;0.70;;
32812;SDS011;19162;48.254;11.454;2023-05-10T15:49:59;1.40;;;0.55;;
32812;SDS011;19162;48.254;11.454;2023-05-10T15:53:00;0.90;;;0.43;;
32812;SDS011;19162;48.254;11.454;2023-05-10T15:56:00;0.60;;;0.60;;
32812;SDS011;19162;48.254;11.454;2023-05-10T15:59:00;4.07;;;0.68;;
32812;SDS011;19162;48.254;11.454;2023-05-10T16:02:00;2.60;;;0.80;;
32812;SDS011;19162;48.254;11.454;2023-05-10T16:05:03;1.52;;;0.88;;
32812;SDS011;19162;48.254;11.454;2023-05-10T16:08:03;0.60;;;0.60;;
32812;SDS011;19162;48.254;11.454;2023-05-10T16:11:03;1.00;;;0.97;;
32812;SDS011;19162;48.254;11.454;2023-05-10T16:14:03;2.37;;;0.97;;
32812;SDS011;19162;48.254;11.454;2023-05-10T16:17:04;2.47;;;1.10;;
32812;SDS011;19162;48.254;11.454;2023-05-10T16:20:04;1.70;;;1.52;;
32812;SDS011;19162;48.254;11.454;2023-05-10T16:23:05;1.55;;;1.20;;
32812;SDS011;19162;48.254;11.454;2023-05-10T16:26:06;1.25;;;1.08;;
32812;SDS011;19162;48.254;11.454;2023-05-10T16:29:07;1.77;;;1.20;;
32812;SDS011;19162;48.254;11.454;2023-05-10T16:32:07;2.45;;;1.63;;
32812;SDS011;19162;48.254;11.454;2023-05-10T16:35:07;1.80;;;1.20;;
32812;SDS011;19162;48.254;11.454;2023-05-10T16:38:07;2.38;;;1.80;;
32812;SDS011;19162;48.254;11.454;2023-05-10T16:41:08;1.48;;;1.13;;
32812;SDS011;19162;48.254;11.454;2023-05-10T16:44:08;1.98;;;1.67;;
32812;SDS011;19162;48.254;11.454;2023-05-10T16:47:08;1.47;;;1.20;;
32812;SDS011;19162;48.254;11.454;2023-05-10T16:50:08;1.23;;;1.13;;
32812;SDS011;19162;48.254;11.454;2023-05-10T16:53:09;1.33;;;1.23;;
32812;SDS011;19162;48.254;11.454;2023-05-10T16:56:10;2.17;;;1.60;;
32812;SDS011;19162;48.254;11.454;2023-05-10T16:59:10;2.13;;;1.85;;
32812;SDS011;19162;48.254;11.454;2023-05-10T17:02:11;1.15;;;1.02;;
32812;SDS011;19162;48.254;11.454;2023-05-10T17:05:11;1.27;;;0.90;;
32812;SDS011;19162;48.254;11.454;2023-05-10T17:08:11;0.70;;;0.70;;
32812;SDS011;19162;48.254;11.454;2023-05-10T17:11:11;0.40;;;0.40;;
32812;SDS011;19162;48.254;11.454;2023-05-10T17:14:12;0.80;;;0.80;;
32812;SDS011;19162;48.254;11.454;2023-05-10T17:17:12;0.68;;;0.60;;
32812;SDS011;19162;48.254;11.454;2023-05-10T17:20:12;0.70;;;0.70;;
32812;SDS011;19162;48.254;11.454;2023-05-10T17:23:12;1.80;;;0.60;;
32812;SDS011;19162;48.254;11.454;2023-05-10T17:26:13;1.05;;;0.70;;
32812;SDS011;19162;48.254;11.454;2023-05-10T17:29:13;1.73;;;0.70;;
32812;SDS011;19162;48.254;11.454;2023-05-10T17:32:13;1.60;;;1.13;;
32812;SDS011;19162;48.254;11.454;2023-05-10T17:35:13;1.45;;;1.35;;
32812;SDS011;19162;48.254;11.454;2023-05-10T17:38:13;1.97;;;1.40;;
32812;SDS011;19162;48.254;11.454;2023-05-10T17:41:14;2.45;;;1.50;;
32812;SDS011;19162;48.254;11.454;2023-05-10T17:44:14;1.77;;;1.20;;
32812;SDS011;19162;48.254;11.454;2023-05-10T17:47:14;0.90;;;0.90;;
32812;SDS011;19162;48.254;11.454;2023-05-10T17:50:14;1.40;;;1.30;;
32812;SDS011;19162;48.254;11.454;2023-05-10T17:53:15;1.10;;;1.00;;
32812;SDS011;19162;48.254;11.454;2023-05-10T17:56:15;1.87;;;1.37;;
32812;SDS011;19162;48.254;11.454;2023-05-10T17:59:15;2.30;;;1.30;;
32812;SDS011;19162;48.254;11.454;2023-05-10T18:02:15;2.23;;;1.90;;
32812;SDS011;19162;48.254;11.454;2023-05-10T18:05:15;2.17;;;1.73;;
32812;SDS011;19162;48.254;11.454;2023-05-10T18:08:16;2.70;;;2.20;;
32812;SDS011;19162;48.254;11.454;2023-05-10T18:11:21;2.72;;;2.10;;
32812;SDS011;19162;48.254;11.454;2023-05-10T18:14:21;2.10;;;1.90;;
32812;SDS011;19162;48.254;11.454;2023-05-10T18:17:22;1.48;;;1.38;;
32812;SDS011;19162;48.254;11.454;2023-05-10T18:20:22;1.85;;;1.55;;
32812;SDS011;19162;48.254;11.454;2023-05-10T18:23:23;2.03;;;1.83;;
32812;SDS011;19162;48.254;11.454;2023-05-10T18:26:23;4.22;;;1.88;;